createdAt,value
2023-03-26T00:00:31.072Z,15.10
2023-03-26T00:02:54.847Z,16.40
2023-03-26T00:04:57.347Z,18.40
2023-03-26T00:07:01.944Z,12.20
2023-03-26T00:09:06.455Z,18.80
2023-03-26T00:11:11.304Z,12.70
2023-03-26T00:13:14.181Z,16.60
2023-03-26T00:15:17.177Z,12.70
2023-03-26T00:17:19.873Z,16.80
2023-03-26T00:19:22.892Z,10.90
2023-03-26T00:21:27.893Z,15.80
2023-03-26T00:23:34.961Z,15.50
2023-03-26T00:25:41.803Z,15.70
2023-03-26T00:27:45.715Z,14.70
2023-03-26T00:29:49.293Z,13.10
2023-03-26T00:31:54.478Z,12.30
2023-03-26T00:34:03.570Z,13.20
2023-03-26T00:36:10.901Z,13.50
2023-03-26T00:38:14.735Z,14.70
2023-03-26T00:40:17.577Z,12.30
2023-03-26T00:42:20.731Z,15.10
2023-03-26T00:44:23.457Z,16.70
2023-03-26T00:46:28.435Z,10.20
2023-03-26T00:48:44.023Z,11.70
2023-03-26T00:50:49.711Z,12.40
2023-03-26T00:52:55.831Z,8.10
2023-03-26T00:55:00.223Z,8.30
2023-03-26T00:59:10.032Z,11.70
2023-03-26T01:01:16.550Z,12.10
2023-03-26T01:03:27.663Z,12.50
2023-03-26T01:05:34.162Z,10.00
2023-03-26T01:07:37.057Z,10.10
2023-03-26T01:09:45.760Z,11.70
2023-03-26T01:11:50.024Z,9.80
2023-03-26T01:13:57.817Z,15.50
2023-03-26T01:16:02.148Z,18.90
2023-03-26T01:18:05.948Z,13.80
2023-03-26T01:20:26.887Z,11.70
2023-03-26T01:22:29.526Z,10.80
2023-03-26T01:24:32.558Z,13.40
2023-03-26T01:26:54.509Z,12.50
2023-03-26T01:29:03.963Z,16.20
2023-03-26T01:31:30.204Z,13.80
2023-03-26T01:33:55.148Z,14.30
2023-03-26T01:36:05.089Z,11.80
2023-03-26T01:38:23.431Z,11.40
2023-03-26T01:40:43.031Z,11.10
2023-03-26T01:42:56.254Z,12.30
2023-03-26T01:45:07.926Z,14.40
2023-03-26T01:47:13.223Z,12.80
2023-03-26T01:49:18.498Z,12.30
2023-03-26T01:51:31.121Z,11.20
2023-03-26T01:53:37.888Z,11.50
2023-03-26T01:55:56.118Z,13.00
2023-03-26T01:58:12.712Z,18.10
2023-03-26T02:00:32.416Z,20.80
2023-03-26T02:02:55.156Z,9.70
2023-03-26T02:05:16.975Z,12.60
2023-03-26T02:07:28.774Z,15.90
2023-03-26T02:09:40.952Z,34.50
2023-03-26T02:11:45.383Z,23.70
2023-03-26T02:13:48.487Z,19.00
2023-03-26T02:15:59.840Z,11.90
2023-03-26T02:18:04.086Z,11.90
2023-03-26T02:20:10.560Z,16.70
2023-03-26T02:24:20.262Z,11.90
2023-03-26T02:26:24.841Z,13.70
2023-03-26T02:28:41.781Z,14.20
2023-03-26T02:30:45.902Z,15.90
2023-03-26T02:32:52.245Z,11.90
2023-03-26T02:34:55.305Z,15.60
2023-03-26T02:36:58.551Z,12.40
2023-03-26T02:39:01.504Z,10.60
2023-03-26T02:41:06.212Z,14.30
2023-03-26T02:43:22.602Z,14.80
2023-03-26T02:45:25.306Z,16.30
2023-03-26T02:47:43.369Z,15.80
2023-03-26T02:50:12.263Z,17.40
2023-03-26T02:52:28.329Z,28.40
2023-03-26T02:54:34.165Z,14.80
2023-03-26T02:57:06.172Z,17.70
2023-03-26T02:59:42.717Z,20.80
2023-03-26T03:02:18.370Z,16.00
2023-03-26T03:04:22.024Z,15.90
2023-03-26T03:06:26.753Z,10.50
2023-03-26T03:08:34.084Z,17.50
2023-03-26T03:10:43.594Z,18.00
2023-03-26T03:12:54.441Z,9.50
2023-03-26T03:14:57.537Z,11.30
2023-03-26T03:17:01.883Z,15.00
2023-03-26T03:19:06.401Z,13.60
2023-03-26T03:21:13.885Z,19.20
2023-03-26T03:23:17.140Z,21.80
2023-03-26T03:25:22.233Z,13.80
2023-03-26T03:27:26.222Z,13.50
2023-03-26T03:29:44.315Z,14.80
2023-03-26T03:32:04.439Z,16.50
2023-03-26T03:34:13.654Z,26.10
2023-03-26T03:36:22.694Z,32.10
2023-03-26T03:38:38.550Z,27.40
2023-03-26T03:40:41.442Z,26.40
2023-03-26T03:42:44.647Z,24.70
2023-03-26T03:44:47.820Z,19.80
2023-03-26T03:47:17.015Z,25.10
2023-03-26T03:49:20.183Z,17.40
2023-03-26T03:51:23.382Z,15.60
2023-03-26T03:53:37.190Z,18.80
2023-03-26T03:55:41.975Z,16.70
2023-03-26T03:57:45.824Z,18.30
2023-03-26T03:59:58.581Z,24.80
2023-03-26T04:02:03.176Z,41.10
2023-03-26T04:04:13.292Z,47.80
2023-03-26T04:06:25.640Z,27.70
2023-03-26T04:08:28.893Z,22.40
2023-03-26T04:10:32.161Z,22.50
2023-03-26T04:12:37.279Z,20.60
2023-03-26T04:14:41.679Z,19.80
2023-03-26T04:16:50.211Z,32.30
2023-03-26T04:18:53.064Z,20.60
2023-03-26T04:20:55.965Z,26.40
2023-03-26T04:23:04.773Z,23.60
2023-03-26T04:25:11.430Z,22.50
2023-03-26T04:27:32.025Z,20.10
2023-03-26T04:29:49.831Z,21.70
2023-03-26T04:32:06.559Z,28.40
2023-03-26T04:34:24.400Z,19.70
2023-03-26T04:36:35.803Z,27.70
2023-03-26T04:38:49.237Z,22.50
2023-03-26T04:40:53.168Z,29.40
2023-03-26T04:43:14.308Z,34.10
2023-03-26T04:45:35.464Z,19.30
2023-03-26T04:47:40.359Z,22.80
2023-03-26T04:49:47.791Z,25.70
2023-03-26T04:51:54.613Z,23.20
2023-03-26T04:54:26.617Z,21.40
2023-03-26T04:56:54.271Z,26.70
2023-03-26T04:59:30.493Z,18.20
2023-03-26T05:01:37.878Z,20.10
2023-03-26T05:03:42.001Z,24.20
2023-03-26T05:05:46.657Z,28.70
2023-03-26T05:07:49.770Z,19.20
2023-03-26T05:09:53.242Z,18.20
2023-03-26T05:11:59.756Z,25.70
2023-03-26T05:14:03.693Z,17.50
2023-03-26T05:16:06.713Z,21.30
2023-03-26T05:18:30.106Z,21.40
2023-03-26T05:20:35.671Z,19.40
2023-03-26T05:22:39.929Z,31.50
2023-03-26T05:24:52.330Z,30.40
2023-03-26T05:26:56.512Z,29.90
2023-03-26T05:29:03.145Z,23.30
2023-03-26T05:31:13.868Z,23.30
2023-03-26T05:33:21.611Z,30.20
2023-03-26T05:35:29.289Z,30.20
2023-03-26T05:37:33.065Z,26.50
2023-03-26T05:39:41.214Z,43.30
2023-03-26T05:41:53.547Z,34.10
2023-03-26T05:43:57.866Z,24.10
2023-03-26T05:46:05.584Z,21.10
2023-03-26T05:48:10.332Z,29.60
2023-03-26T05:50:13.217Z,32.50
2023-03-26T05:52:19.066Z,43.90
2023-03-26T05:54:40.235Z,34.80
2023-03-26T05:57:02.095Z,32.60
2023-03-26T05:59:30.668Z,34.00
2023-03-26T06:01:54.448Z,24.60
2023-03-26T06:04:29.377Z,22.00
2023-03-26T06:06:47.905Z,39.70
2023-03-26T06:09:01.608Z,26.30
2023-03-26T06:11:08.360Z,29.40
2023-03-26T06:13:16.212Z,29.10
2023-03-26T06:15:21.314Z,29.80
2023-03-26T06:17:30.942Z,31.80
2023-03-26T06:19:47.967Z,30.60
2023-03-26T06:24:08.668Z,33.80
2023-03-26T06:26:24.664Z,34.60
2023-03-26T06:28:46.214Z,26.70
2023-03-26T06:31:09.270Z,33.00
2023-03-26T06:33:30.803Z,31.80
2023-03-26T06:35:34.890Z,25.40
2023-03-26T06:37:38.786Z,28.20
2023-03-26T06:39:43.093Z,23.70
2023-03-26T06:44:19.394Z,26.20
2023-03-26T06:46:48.941Z,22.30
2023-03-26T06:49:19.051Z,23.90
2023-03-26T06:51:41.456Z,26.50
2023-03-26T06:53:44.081Z,30.70
2023-03-26T06:55:54.632Z,23.30
2023-03-26T06:58:14.369Z,27.40
2023-03-26T07:00:37.520Z,28.60
2023-03-26T07:03:03.866Z,25.00
2023-03-26T07:05:28.288Z,23.90
2023-03-26T07:07:49.873Z,36.90
2023-03-26T07:10:12.381Z,54.60
2023-03-26T07:12:46.433Z,33.20
2023-03-26T07:15:10.366Z,21.30
2023-03-26T07:17:36.160Z,29.60
2023-03-26T07:19:53.723Z,39.00
2023-03-26T07:22:03.443Z,39.60
2023-03-26T07:24:35.397Z,34.20
2023-03-26T07:27:07.179Z,41.00
2023-03-26T07:29:23.468Z,31.30
2023-03-26T07:31:50.878Z,36.10
2023-03-26T07:34:25.617Z,39.00
2023-03-26T07:36:57.574Z,34.70
2023-03-26T07:39:41.179Z,32.50
2023-03-26T07:41:58.647Z,37.20
2023-03-26T07:44:42.481Z,25.90
2023-03-26T07:47:26.332Z,25.60
2023-03-26T07:49:48.087Z,33.40
2023-03-26T07:51:51.244Z,41.60
2023-03-26T07:54:20.783Z,25.30
2023-03-26T07:57:02.007Z,37.30
2023-03-26T07:59:43.492Z,31.60
2023-03-26T08:02:04.719Z,20.70
2023-03-26T08:04:58.735Z,24.40
2023-03-26T08:07:25.642Z,24.60
2023-03-26T08:10:20.623Z,33.90
2023-03-26T08:12:56.606Z,33.00
2023-03-26T08:15:18.100Z,31.80
2023-03-26T08:17:39.477Z,32.30
2023-03-26T08:19:55.132Z,27.00
2023-03-26T08:22:26.422Z,24.70
2023-03-26T08:24:43.324Z,42.20
2023-03-26T08:27:18.747Z,28.70
2023-03-26T08:29:50.060Z,30.90
2023-03-26T08:31:54.380Z,92.80
2023-03-26T08:33:57.106Z,35.80
2023-03-26T08:36:00.015Z,38.10
2023-03-26T08:38:02.827Z,44.30
2023-03-26T08:40:06.670Z,29.10
2023-03-26T08:42:33.836Z,33.20
2023-03-26T08:44:59.657Z,41.80
2023-03-26T08:47:21.070Z,38.40
2023-03-26T08:52:09.336Z,45.10
2023-03-26T08:54:26.077Z,37.70
2023-03-26T08:56:53.394Z,26.30
2023-03-26T08:59:26.414Z,33.60
2023-03-26T09:01:45.957Z,52.00
2023-03-26T09:04:10.489Z,36.60
2023-03-26T09:06:29.709Z,31.70
2023-03-26T09:08:32.393Z,37.70
2023-03-26T09:11:13.945Z,42.80
2023-03-26T09:15:47.167Z,27.30
2023-03-26T09:18:09.465Z,32.50
2023-03-26T09:20:48.698Z,28.80
2023-03-26T09:23:22.721Z,40.20
2023-03-26T09:25:34.532Z,37.90
2023-03-26T09:27:48.780Z,46.80
2023-03-26T09:30:21.317Z,36.90
2023-03-26T09:32:54.548Z,46.30
2023-03-26T09:35:13.076Z,30.90
2023-03-26T09:38:05.918Z,41.70
2023-03-26T09:40:22.464Z,37.90
2023-03-26T09:43:11.562Z,49.10
2023-03-26T09:45:38.375Z,37.80
2023-03-26T09:48:05.555Z,27.20
2023-03-26T09:50:30.012Z,45.20
2023-03-26T09:52:59.333Z,23.80
2023-03-26T09:55:10.484Z,75.00
2023-03-26T09:57:26.341Z,29.40
2023-03-26T09:59:35.695Z,35.80
2023-03-26T10:02:05.406Z,45.00
2023-03-26T10:04:27.645Z,44.70
2023-03-26T10:06:47.414Z,50.60
2023-03-26T10:09:00.341Z,37.40
2023-03-26T10:11:52.618Z,44.00
2023-03-26T10:14:18.894Z,45.30
2023-03-26T10:16:34.666Z,63.50
2023-03-26T10:19:00.023Z,44.40
2023-03-26T10:21:13.614Z,39.80
2023-03-26T10:24:00.517Z,27.20
2023-03-26T10:26:08.848Z,49.90
2023-03-26T10:29:00.371Z,36.20
2023-03-26T10:31:25.722Z,36.70
2023-03-26T10:34:00.560Z,50.10
2023-03-26T10:36:20.688Z,45.50
2023-03-26T10:38:35.624Z,43.50
2023-03-26T10:40:55.629Z,45.80
2023-03-26T10:43:36.304Z,40.50
2023-03-26T10:46:09.968Z,54.90
2023-03-26T10:48:36.748Z,37.60
2023-03-26T10:50:57.383Z,37.90
2023-03-26T10:53:36.124Z,37.20
2023-03-26T10:55:46.674Z,31.60
2023-03-26T10:57:54.003Z,46.20
2023-03-26T11:00:01.971Z,43.80
2023-03-26T11:02:30.808Z,32.50
2023-03-26T11:05:01.079Z,26.20
2023-03-26T11:07:36.660Z,38.50
2023-03-26T11:09:55.398Z,38.70
2023-03-26T11:12:25.701Z,50.40
2023-03-26T11:14:48.666Z,42.00
2023-03-26T11:19:21.913Z,30.40
2023-03-26T11:21:43.710Z,32.00
2023-03-26T11:24:13.450Z,36.30
2023-03-26T11:26:42.280Z,36.80
2023-03-26T11:29:03.956Z,58.10
2023-03-26T11:31:20.520Z,36.40
2023-03-26T11:33:32.809Z,32.60
2023-03-26T11:35:41.066Z,39.70
2023-03-26T11:37:53.297Z,27.80
2023-03-26T11:39:59.404Z,29.30
2023-03-26T11:42:22.016Z,35.40
2023-03-26T11:44:32.396Z,32.40
2023-03-26T11:46:40.875Z,36.40
2023-03-26T11:48:57.452Z,31.10
2023-03-26T11:51:10.426Z,24.00
2023-03-26T11:53:18.029Z,33.10
2023-03-26T11:55:21.181Z,36.70
2023-03-26T11:57:33.206Z,23.40
2023-03-26T11:59:56.265Z,28.00
2023-03-26T12:02:20.026Z,31.70
2023-03-26T12:04:29.997Z,33.10
2023-03-26T12:06:36.308Z,29.90
2023-03-26T12:08:41.910Z,22.00
2023-03-26T12:11:04.354Z,23.50
2023-03-26T12:13:23.719Z,22.70
2023-03-26T12:15:29.681Z,23.90
2023-03-26T12:17:39.702Z,21.70
2023-03-26T12:19:44.995Z,33.80
2023-03-26T12:24:02.016Z,26.20
2023-03-26T12:26:36.406Z,25.80
2023-03-26T12:28:48.640Z,23.00
2023-03-26T12:31:07.592Z,39.10
2023-03-26T12:33:26.115Z,29.90
2023-03-26T12:35:31.176Z,30.20
2023-03-26T12:37:42.649Z,33.00
2023-03-26T12:40:10.169Z,32.90
2023-03-26T12:44:45.937Z,40.80
2023-03-26T12:45:00.062Z,25.70
2023-03-26T12:48:00.659Z,30.60
2023-03-26T12:49:36.703Z,30.00
2023-03-26T12:51:44.558Z,20.90
2023-03-26T12:53:56.058Z,31.80
2023-03-26T12:56:02.199Z,19.10
2023-03-26T12:58:23.712Z,16.30
2023-03-26T13:00:53.782Z,26.00
2023-03-26T13:03:14.941Z,22.60
2023-03-26T13:05:37.109Z,19.50
2023-03-26T13:08:09.460Z,17.60
2023-03-26T13:10:36.571Z,21.20
2023-03-26T13:12:58.029Z,22.20
2023-03-26T13:15:13.071Z,17.50
2023-03-26T13:17:29.271Z,19.50
2023-03-26T13:20:00.750Z,12.90
2023-03-26T13:22:33.753Z,18.80
2023-03-26T13:24:55.661Z,20.10
2023-03-26T13:27:22.690Z,19.70
2023-03-26T13:29:56.570Z,17.20
2023-03-26T13:32:22.903Z,18.90
2023-03-26T13:34:49.614Z,22.40
2023-03-26T13:37:12.618Z,30.80
2023-03-26T13:39:54.608Z,28.40
2023-03-26T13:42:22.289Z,25.80
2023-03-26T13:44:47.277Z,28.50
2023-03-26T13:46:55.886Z,23.50
2023-03-26T13:49:10.818Z,19.40
2023-03-26T13:51:21.965Z,21.90
2023-03-26T13:53:32.986Z,27.00
2023-03-26T13:55:41.843Z,13.70
2023-03-26T13:57:57.181Z,20.70
2023-03-26T14:00:58.491Z,26.90
2023-03-26T14:03:16.499Z,30.20
2023-03-26T14:05:34.098Z,20.20
2023-03-26T14:08:02.488Z,19.60
2023-03-26T14:10:12.436Z,24.80
2023-03-26T14:12:51.741Z,29.80
2023-03-26T14:15:13.891Z,25.70
2023-03-26T14:17:29.548Z,20.80
2023-03-26T14:20:14.851Z,17.10
2023-03-26T14:22:45.668Z,20.60
2023-03-26T14:25:18.652Z,22.30
2023-03-26T14:27:37.449Z,26.40
2023-03-26T14:29:56.949Z,36.00
2023-03-26T14:32:13.189Z,34.80
2023-03-26T14:34:45.430Z,25.10
2023-03-26T14:37:27.086Z,22.40
2023-03-26T14:40:14.714Z,17.00
2023-03-26T14:42:45.102Z,30.70
2023-03-26T14:45:09.591Z,27.40
2023-03-26T14:47:21.093Z,42.20
2023-03-26T14:49:40.838Z,36.50
2023-03-26T14:51:43.637Z,39.50
2023-03-26T14:53:54.499Z,27.00
2023-03-26T14:56:39.900Z,34.30
2023-03-26T14:58:56.165Z,28.80
2023-03-26T15:01:22.810Z,37.70
2023-03-26T15:04:02.292Z,28.80
2023-03-26T15:06:26.755Z,23.90
2023-03-26T15:11:35.180Z,30.00
2023-03-26T15:13:59.779Z,25.90
2023-03-26T15:16:27.521Z,43.00
2023-03-26T15:18:45.078Z,34.40
2023-03-26T15:21:20.266Z,22.80
2023-03-26T15:23:39.243Z,37.70
2023-03-26T15:26:19.149Z,31.70
2023-03-26T15:29:19.484Z,21.90
2023-03-26T15:31:53.031Z,8.60
2023-03-26T15:34:20.477Z,17.80
2023-03-26T15:36:56.395Z,16.70
2023-03-26T15:41:26.280Z,33.90
2023-03-26T15:44:24.308Z,26.70
2023-03-26T15:46:53.249Z,19.80
2023-03-26T15:49:20.000Z,58.40
2023-03-26T15:51:46.471Z,48.40
2023-03-26T15:54:16.967Z,35.70
2023-03-26T15:56:44.181Z,27.40
2023-03-26T15:59:06.222Z,27.50
2023-03-26T16:01:38.387Z,34.90
2023-03-26T16:03:53.679Z,36.70
2023-03-26T16:06:32.739Z,39.70
2023-03-26T16:08:48.835Z,43.20
2023-03-26T16:10:57.523Z,43.60
2023-03-26T16:13:39.006Z,35.90
2023-03-26T16:15:42.655Z,30.80
2023-03-26T16:18:16.896Z,28.50
2023-03-26T16:20:31.271Z,34.10
2023-03-26T16:22:42.498Z,23.50
2023-03-26T16:24:47.685Z,27.70
2023-03-26T16:27:27.424Z,25.20
2023-03-26T16:29:31.449Z,31.10
2023-03-26T16:31:38.405Z,35.10
2023-03-26T16:33:50.585Z,43.90
2023-03-26T16:36:11.418Z,29.30
2023-03-26T16:38:16.436Z,28.80
2023-03-26T16:40:22.426Z,28.60
2023-03-26T16:43:10.300Z,36.20
2023-03-26T16:45:21.075Z,17.40
2023-03-26T16:47:47.063Z,26.80
2023-03-26T16:50:12.168Z,23.00
2023-03-26T16:52:42.851Z,27.40
2023-03-26T16:54:51.470Z,32.20
2023-03-26T16:57:23.038Z,33.50
2023-03-26T16:59:46.679Z,31.40
2023-03-26T17:02:33.695Z,42.60
2023-03-26T17:04:37.403Z,42.40
2023-03-26T17:06:45.816Z,30.70
2023-03-26T17:08:57.385Z,32.60
2023-03-26T17:11:29.027Z,44.40
2023-03-26T17:13:55.990Z,42.20
2023-03-26T17:16:33.479Z,48.10
2023-03-26T17:18:54.992Z,50.00
2023-03-26T17:21:22.913Z,46.50
2023-03-26T17:23:43.891Z,43.00
2023-03-26T17:26:37.301Z,42.00
2023-03-26T17:29:07.846Z,36.20
2023-03-26T17:31:20.134Z,36.80
2023-03-26T17:33:26.698Z,31.90
2023-03-26T17:35:47.388Z,65.50
2023-03-26T17:37:51.651Z,58.50
2023-03-26T17:40:10.613Z,55.50
2023-03-26T17:42:16.251Z,52.40
2023-03-26T17:44:38.626Z,54.20
2023-03-26T17:46:45.491Z,38.10
2023-03-26T17:49:01.462Z,40.20
2023-03-26T17:51:34.937Z,34.90
2023-03-26T17:53:38.008Z,33.40
2023-03-26T17:55:45.825Z,38.10
2023-03-26T17:57:58.525Z,35.80
2023-03-26T18:00:02.527Z,43.40
2023-03-26T18:02:22.495Z,40.70
2023-03-26T18:04:35.127Z,41.00
2023-03-26T18:06:56.149Z,38.70
2023-03-26T18:09:33.498Z,36.70
2023-03-26T18:12:04.071Z,43.40
2023-03-26T18:14:45.742Z,33.80
2023-03-26T18:16:52.833Z,45.70
2023-03-26T18:19:01.834Z,51.90
2023-03-26T18:21:09.544Z,57.80
2023-03-26T18:23:21.101Z,50.60
2023-03-26T18:25:32.397Z,51.10
2023-03-26T18:27:41.309Z,50.40
2023-03-26T18:29:57.609Z,61.40
2023-03-26T18:32:22.427Z,37.60
2023-03-26T18:34:29.170Z,56.60
2023-03-26T18:36:32.117Z,63.00
2023-03-26T18:40:57.379Z,91.90
2023-03-26T18:43:01.175Z,103.80
2023-03-26T18:45:21.532Z,83.20
2023-03-26T18:47:28.867Z,67.90
2023-03-26T18:49:32.868Z,47.50
2023-03-26T18:51:46.473Z,39.90
2023-03-26T18:54:00.216Z,55.80
2023-03-26T18:56:19.190Z,46.00
2023-03-26T18:58:28.128Z,12.20
2023-03-26T19:00:33.547Z,12.50
2023-03-26T19:02:36.792Z,7.70
2023-03-26T19:04:46.135Z,9.40
2023-03-26T19:06:55.291Z,11.10
2023-03-26T19:08:59.256Z,8.60
2023-03-26T19:11:04.775Z,12.10
2023-03-26T19:13:13.789Z,8.20
2023-03-26T19:15:17.298Z,12.10
2023-03-26T19:17:21.250Z,7.90
2023-03-26T19:19:29.558Z,10.50
2023-03-26T19:21:34.404Z,12.60
2023-03-26T19:23:41.530Z,10.90
2023-03-26T19:25:48.304Z,14.40
2023-03-26T19:27:51.792Z,8.90
2023-03-26T19:29:54.706Z,14.30
2023-03-26T19:32:20.935Z,15.20
2023-03-26T19:34:36.264Z,14.50
2023-03-26T19:36:58.088Z,15.50
2023-03-26T19:39:00.817Z,31.40
2023-03-26T19:41:04.228Z,25.50
2023-03-26T19:43:13.571Z,19.50
2023-03-26T19:45:23.167Z,25.80
2023-03-26T19:49:51.274Z,16.60
2023-03-26T19:52:04.713Z,13.80
2023-03-26T19:54:16.190Z,17.20
2023-03-26T19:56:21.016Z,13.70
2023-03-26T19:58:26.239Z,26.70
2023-03-26T20:00:29.938Z,22.70
2023-03-26T20:02:44.758Z,22.90
2023-03-26T20:04:49.869Z,26.00
2023-03-26T20:06:53.090Z,27.80
2023-03-26T20:08:56.422Z,24.70
2023-03-26T20:10:59.410Z,26.50
2023-03-26T20:13:02.504Z,22.70
2023-03-26T20:15:19.396Z,20.30
2023-03-26T20:17:22.591Z,17.80
2023-03-26T20:19:26.366Z,14.10
2023-03-26T20:21:32.431Z,12.70
2023-03-26T20:23:35.718Z,14.60
2023-03-26T20:25:46.438Z,15.80
2023-03-26T20:27:49.370Z,18.20
2023-03-26T20:29:52.049Z,16.30
2023-03-26T20:31:56.311Z,17.40
2023-03-26T20:33:59.827Z,15.90
2023-03-26T20:36:02.667Z,21.40
2023-03-26T20:38:06.534Z,23.30
2023-03-26T20:40:09.400Z,33.50
2023-03-26T20:42:15.997Z,23.90
2023-03-26T20:44:21.210Z,33.40
2023-03-26T20:46:31.281Z,30.80
2023-03-26T20:48:45.496Z,25.20
2023-03-26T20:50:51.336Z,17.30
2023-03-26T20:52:55.140Z,16.50
2023-03-26T20:54:58.874Z,21.10
2023-03-26T20:57:02.365Z,24.60
2023-03-26T20:59:10.888Z,21.90
2023-03-26T21:01:14.771Z,17.50
2023-03-26T21:03:21.161Z,14.60
2023-03-26T21:05:26.893Z,13.70
2023-03-26T21:07:29.947Z,35.50
2023-03-26T21:09:39.516Z,10.50
2023-03-26T21:11:50.248Z,9.90
2023-03-26T21:14:06.676Z,11.50
2023-03-26T21:16:10.967Z,14.90
2023-03-26T21:18:14.349Z,12.90
2023-03-26T21:20:18.961Z,9.40
2023-03-26T21:22:36.057Z,10.70
2023-03-26T21:25:03.151Z,7.80
2023-03-26T21:27:34.611Z,12.00
2023-03-26T21:29:38.300Z,17.40
2023-03-26T21:31:41.791Z,20.30
2023-03-26T21:33:46.636Z,18.10
2023-03-26T21:35:51.657Z,28.80
2023-03-26T21:37:57.702Z,13.80
2023-03-26T21:40:07.904Z,18.50
2023-03-26T21:42:12.347Z,16.80
2023-03-26T21:44:19.468Z,8.20
2023-03-26T21:46:22.287Z,9.20
2023-03-26T21:48:25.211Z,10.50
2023-03-26T21:50:28.155Z,11.30
2023-03-26T21:52:32.271Z,7.10
2023-03-26T21:54:35.369Z,8.70
2023-03-26T21:56:49.984Z,7.00
2023-03-26T21:58:55.650Z,16.60
2023-03-26T22:01:17.972Z,14.80
2023-03-26T22:03:32.961Z,12.00
2023-03-26T22:05:49.807Z,10.30
2023-03-26T22:08:06.566Z,9.80
2023-03-26T22:10:09.565Z,10.20
2023-03-26T22:12:13.196Z,13.50
2023-03-26T22:14:16.063Z,8.10
2023-03-26T22:16:18.891Z,14.20
2023-03-26T22:18:21.747Z,13.70
2023-03-26T22:20:25.113Z,14.50
2023-03-26T22:22:41.812Z,13.50
2023-03-26T22:24:46.478Z,15.20
2023-03-26T22:26:49.164Z,12.20
2023-03-26T22:28:51.852Z,13.30
2023-03-26T22:30:54.926Z,14.10
2023-03-26T22:32:59.234Z,13.80
2023-03-26T22:35:03.724Z,16.20
2023-03-26T22:37:06.811Z,11.60
2023-03-26T22:39:14.606Z,12.00
2023-03-26T22:41:19.121Z,15.10
2023-03-26T22:43:21.682Z,14.80
2023-03-26T22:45:24.726Z,12.30
2023-03-26T22:47:27.684Z,12.20
2023-03-26T22:49:31.544Z,17.50
2023-03-26T22:51:35.517Z,14.10
2023-03-26T22:53:41.463Z,15.70
2023-03-26T22:55:44.508Z,12.20
2023-03-26T22:57:47.345Z,14.90
2023-03-26T22:59:51.689Z,25.70
2023-03-26T23:01:55.060Z,27.10
2023-03-26T23:03:59.725Z,36.10
2023-03-26T23:06:06.322Z,24.80
2023-03-26T23:08:09.072Z,19.00
2023-03-26T23:10:11.828Z,15.50
2023-03-26T23:12:14.300Z,16.30
2023-03-26T23:14:16.953Z,18.20
2023-03-26T23:16:21.400Z,18.50
2023-03-26T23:18:25.131Z,17.00
2023-03-26T23:20:30.163Z,32.50
2023-03-26T23:22:35.253Z,36.10
2023-03-26T23:24:40.087Z,21.90
2023-03-26T23:26:50.478Z,18.00
2023-03-26T23:28:53.962Z,11.40
2023-03-26T23:30:57.070Z,26.20
2023-03-26T23:32:59.920Z,13.70
2023-03-26T23:35:02.758Z,10.60
2023-03-26T23:37:05.487Z,11.50
2023-03-26T23:39:09.054Z,8.70
2023-03-26T23:41:15.883Z,11.30
2023-03-26T23:43:19.688Z,11.70
2023-03-26T23:45:22.616Z,10.80
2023-03-26T23:47:25.217Z,11.00
2023-03-26T23:49:27.839Z,10.60
2023-03-26T23:51:30.645Z,14.70
2023-03-26T23:53:33.149Z,8.60
2023-03-26T23:55:36.442Z,10.30
2023-03-26T23:57:40.525Z,14.30
2023-03-26T23:59:43.702Z,12.50
